sensor_id;sensor_type;location;lat;lon;timestamp;temperature;humidity
68801;SHT31;55784;50.734;7.086;2023-04-03T00:02:02;5.21;72.39
68801;SHT31;55784;50.734;7.086;2023-04-03T00:04:28;5.19;72.76
68801;SHT31;55784;50.734;7.086;2023-04-03T00:06:53;5.14;72.69
68801;SHT31;55784;50.734;7.086;2023-04-03T00:09:18;5.10;72.70
68801;SHT31;55784;50.734;7.086;2023-04-03T00:11:45;4.92;73.29
68801;SHT31;55784;50.734;7.086;2023-04-03T00:14:10;4.87;73.03
68801;SHT31;55784;50.734;7.086;2023-04-03T00:16:36;4.86;73.72
68801;SHT31;55784;50.734;7.086;2023-04-03T00:19:01;4.93;73.38
68801;SHT31;55784;50.734;7.086;2023-04-03T00:21:26;4.96;73.07
68801;SHT31;55784;50.734;7.086;2023-04-03T00:23:52;5.00;73.31
68801;SHT31;55784;50.734;7.086;2023-04-03T00:26:17;4.99;73.23
68801;SHT31;55784;50.734;7.086;2023-04-03T00:28:42;4.99;73.63
68801;SHT31;55784;50.734;7.086;2023-04-03T00:31:08;4.93;73.51
68801;SHT31;55784;50.734;7.086;2023-04-03T00:33:33;4.86;73.38
68801;SHT31;55784;50.734;7.086;2023-04-03T00:35:58;4.94;73.66
68801;SHT31;55784;50.734;7.086;2023-04-03T00:38:24;4.99;73.71
68801;SHT31;55784;50.734;7.086;2023-04-03T00:40:49;4.86;74.50
68801;SHT31;55784;50.734;7.086;2023-04-03T00:43:18;4.96;73.44
68801;SHT31;55784;50.734;7.086;2023-04-03T00:45:48;4.99;73.35
68801;SHT31;55784;50.734;7.086;2023-04-03T00:48:36;4.92;73.65
68801;SHT31;55784;50.734;7.086;2023-04-03T00:51:03;4.96;73.44
68801;SHT31;55784;50.734;7.086;2023-04-03T00:53:35;4.86;73.91
68801;SHT31;55784;50.734;7.086;2023-04-03T00:56:05;4.73;74.45
68801;SHT31;55784;50.734;7.086;2023-04-03T00:58:34;4.73;74.86
68801;SHT31;55784;50.734;7.086;2023-04-03T01:01:06;4.76;74.69
68801;SHT31;55784;50.734;7.086;2023-04-03T01:03:33;4.75;75.09
68801;SHT31;55784;50.734;7.086;2023-04-03T01:05:58;4.58;76.65
68801;SHT31;55784;50.734;7.086;2023-04-03T01:08:24;4.48;77.04
68801;SHT31;55784;50.734;7.086;2023-04-03T01:10:49;4.46;76.59
68801;SHT31;55784;50.734;7.086;2023-04-03T01:13:21;4.42;76.91
68801;SHT31;55784;50.734;7.086;2023-04-03T01:15:48;4.37;77.19
68801;SHT31;55784;50.734;7.086;2023-04-03T01:18:13;4.34;77.81
68801;SHT31;55784;50.734;7.086;2023-04-03T01:20:49;4.37;76.81
68801;SHT31;55784;50.734;7.086;2023-04-03T01:23:44;4.41;77.13
68801;SHT31;55784;50.734;7.086;2023-04-03T01:26:13;4.41;77.32
68801;SHT31;55784;50.734;7.086;2023-04-03T01:28:39;4.46;77.10
68801;SHT31;55784;50.734;7.086;2023-04-03T01:33:56;4.49;75.99
68801;SHT31;55784;50.734;7.086;2023-04-03T01:36:28;4.49;76.23
68801;SHT31;55784;50.734;7.086;2023-04-03T01:38:55;4.45;77.09
68801;SHT31;55784;50.734;7.086;2023-04-03T01:41:21;4.37;77.45
68801;SHT31;55784;50.734;7.086;2023-04-03T01:43:48;4.42;76.93
68801;SHT31;55784;50.734;7.086;2023-04-03T01:46:14;4.35;77.11
68801;SHT31;55784;50.734;7.086;2023-04-03T01:48:40;4.35;77.17
68801;SHT31;55784;50.734;7.086;2023-04-03T01:51:05;4.32;77.19
68801;SHT31;55784;50.734;7.086;2023-04-03T01:53:30;4.28;77.28
68801;SHT31;55784;50.734;7.086;2023-04-03T01:55:56;4.25;77.68
68801;SHT31;55784;50.734;7.086;2023-04-03T01:58:21;4.25;77.43
68801;SHT31;55784;50.734;7.086;2023-04-03T02:00:47;4.28;76.99
68801;SHT31;55784;50.734;7.086;2023-04-03T02:03:13;4.21;78.11
68801;SHT31;55784;50.734;7.086;2023-04-03T02:05:39;4.21;77.90
68801;SHT31;55784;50.734;7.086;2023-04-03T02:08:04;4.17;77.90
68801;SHT31;55784;50.734;7.086;2023-04-03T02:10:30;4.15;78.04
68801;SHT31;55784;50.734;7.086;2023-04-03T02:12:55;4.15;78.40
68801;SHT31;55784;50.734;7.086;2023-04-03T02:15:20;4.14;78.46
68801;SHT31;55784;50.734;7.086;2023-04-03T02:17:46;4.14;78.38
68801;SHT31;55784;50.734;7.086;2023-04-03T02:20:11;4.21;78.00
68801;SHT31;55784;50.734;7.086;2023-04-03T02:22:36;4.19;77.95
68801;SHT31;55784;50.734;7.086;2023-04-03T02:25:02;4.12;77.81
68801;SHT31;55784;50.734;7.086;2023-04-03T02:27:28;4.04;78.82
68801;SHT31;55784;50.734;7.086;2023-04-03T02:29:53;3.98;78.97
68801;SHT31;55784;50.734;7.086;2023-04-03T02:32:18;4.01;78.85
68801;SHT31;55784;50.734;7.086;2023-04-03T02:34:44;3.97;79.09
68801;SHT31;55784;50.734;7.086;2023-04-03T02:37:09;3.99;78.93
68801;SHT31;55784;50.734;7.086;2023-04-03T02:39:35;3.99;78.41
68801;SHT31;55784;50.734;7.086;2023-04-03T02:42:00;3.94;78.72
68801;SHT31;55784;50.734;7.086;2023-04-03T02:44:26;3.95;78.72
68801;SHT31;55784;50.734;7.086;2023-04-03T02:46:51;3.90;78.99
68801;SHT31;55784;50.734;7.086;2023-04-03T02:49:19;3.86;78.98
68801;SHT31;55784;50.734;7.086;2023-04-03T02:51:45;3.80;79.34
68801;SHT31;55784;50.734;7.086;2023-04-03T02:54:11;3.76;79.73
68801;SHT31;55784;50.734;7.086;2023-04-03T02:56:36;3.74;79.05
68801;SHT31;55784;50.734;7.086;2023-04-03T02:59:02;3.76;79.15
68801;SHT31;55784;50.734;7.086;2023-04-03T03:01:27;3.77;79.04
68801;SHT31;55784;50.734;7.086;2023-04-03T03:03:56;3.80;78.52
68801;SHT31;55784;50.734;7.086;2023-04-03T03:06:22;3.80;78.66
68801;SHT31;55784;50.734;7.086;2023-04-03T03:08:47;3.78;79.25
68801;SHT31;55784;50.734;7.086;2023-04-03T03:11:13;3.83;78.79
68801;SHT31;55784;50.734;7.086;2023-04-03T03:13:38;3.76;78.80
68801;SHT31;55784;50.734;7.086;2023-04-03T03:16:04;3.76;79.38
68801;SHT31;55784;50.734;7.086;2023-04-03T03:18:30;3.70;79.33
68801;SHT31;55784;50.734;7.086;2023-04-03T03:20:57;3.69;78.94
68801;SHT31;55784;50.734;7.086;2023-04-03T03:23:25;3.64;79.14
68801;SHT31;55784;50.734;7.086;2023-04-03T03:26:05;3.62;79.29
68801;SHT31;55784;50.734;7.086;2023-04-03T03:28:31;3.52;79.54
68801;SHT31;55784;50.734;7.086;2023-04-03T03:30:57;3.49;79.86
68801;SHT31;55784;50.734;7.086;2023-04-03T03:33:23;3.49;79.75
68801;SHT31;55784;50.734;7.086;2023-04-03T03:35:48;3.46;79.75
68801;SHT31;55784;50.734;7.086;2023-04-03T03:38:14;3.42;80.81
68801;SHT31;55784;50.734;7.086;2023-04-03T03:40:40;3.36;80.68
68801;SHT31;55784;50.734;7.086;2023-04-03T03:43:05;3.36;80.57
68801;SHT31;55784;50.734;7.086;2023-04-03T03:45:31;3.32;81.08
68801;SHT31;55784;50.734;7.086;2023-04-03T03:47:57;3.27;81.15
68801;SHT31;55784;50.734;7.086;2023-04-03T03:50:22;3.19;81.44
68801;SHT31;55784;50.734;7.086;2023-04-03T03:52:47;3.15;81.15
68801;SHT31;55784;50.734;7.086;2023-04-03T03:55:13;3.12;81.34
68801;SHT31;55784;50.734;7.086;2023-04-03T03:57:38;3.11;81.81
68801;SHT31;55784;50.734;7.086;2023-04-03T04:00:04;3.02;81.47
68801;SHT31;55784;50.734;7.086;2023-04-03T04:02:30;2.98;81.89
68801;SHT31;55784;50.734;7.086;2023-04-03T04:04:55;2.93;81.53
68801;SHT31;55784;50.734;7.086;2023-04-03T04:07:21;2.88;81.93
68801;SHT31;55784;50.734;7.086;2023-04-03T04:09:46;2.81;82.07
68801;SHT31;55784;50.734;7.086;2023-04-03T04:12:11;2.80;81.66
68801;SHT31;55784;50.734;7.086;2023-04-03T04:14:37;2.71;81.89
68801;SHT31;55784;50.734;7.086;2023-04-03T04:17:02;2.66;81.86
68801;SHT31;55784;50.734;7.086;2023-04-03T04:19:28;2.66;81.61
68801;SHT31;55784;50.734;7.086;2023-04-03T04:21:53;2.62;82.05
68801;SHT31;55784;50.734;7.086;2023-04-03T04:24:19;2.62;81.97
68801;SHT31;55784;50.734;7.086;2023-04-03T04:26:44;2.54;82.12
68801;SHT31;55784;50.734;7.086;2023-04-03T04:29:10;2.52;81.93
68801;SHT31;55784;50.734;7.086;2023-04-03T04:31:35;2.54;81.91
68801;SHT31;55784;50.734;7.086;2023-04-03T04:34:01;2.47;82.16
68801;SHT31;55784;50.734;7.086;2023-04-03T04:36:26;2.42;82.22
68801;SHT31;55784;50.734;7.086;2023-04-03T04:38:51;2.42;82.24
68801;SHT31;55784;50.734;7.086;2023-04-03T04:41:22;2.44;81.77
68801;SHT31;55784;50.734;7.086;2023-04-03T04:43:51;2.45;81.36
68801;SHT31;55784;50.734;7.086;2023-04-03T04:46:17;2.45;81.27
68801;SHT31;55784;50.734;7.086;2023-04-03T04:48:43;2.36;81.50
68801;SHT31;55784;50.734;7.086;2023-04-03T04:51:08;2.31;81.64
68801;SHT31;55784;50.734;7.086;2023-04-03T04:53:34;2.34;81.45
68801;SHT31;55784;50.734;7.086;2023-04-03T04:56:00;2.29;81.63
68801;SHT31;55784;50.734;7.086;2023-04-03T04:58:25;2.26;81.71
68801;SHT31;55784;50.734;7.086;2023-04-03T05:00:59;2.29;81.32
68801;SHT31;55784;50.734;7.086;2023-04-03T05:03:24;2.29;80.99
68801;SHT31;55784;50.734;7.086;2023-04-03T05:05:50;2.29;81.12
68801;SHT31;55784;50.734;7.086;2023-04-03T05:08:15;2.30;80.92
68801;SHT31;55784;50.734;7.086;2023-04-03T05:10:40;2.30;81.13
68801;SHT31;55784;50.734;7.086;2023-04-03T05:13:06;2.34;80.69
68801;SHT31;55784;50.734;7.086;2023-04-03T05:15:32;2.26;81.36
68801;SHT31;55784;50.734;7.086;2023-04-03T05:17:57;2.29;81.07
68801;SHT31;55784;50.734;7.086;2023-04-03T05:20:22;2.27;81.05
68801;SHT31;55784;50.734;7.086;2023-04-03T05:22:47;2.21;81.30
68801;SHT31;55784;50.734;7.086;2023-04-03T05:25:13;2.14;81.21
68801;SHT31;55784;50.734;7.086;2023-04-03T05:27:38;2.16;81.18
68801;SHT31;55784;50.734;7.086;2023-04-03T05:30:04;2.19;81.11
68801;SHT31;55784;50.734;7.086;2023-04-03T05:32:30;2.31;80.65
68801;SHT31;55784;50.734;7.086;2023-04-03T05:34:55;2.34;80.39
68801;SHT31;55784;50.734;7.086;2023-04-03T05:37:20;2.30;80.48
68801;SHT31;55784;50.734;7.086;2023-04-03T05:39:46;2.34;80.52
68801;SHT31;55784;50.734;7.086;2023-04-03T05:42:11;2.40;80.55
68801;SHT31;55784;50.734;7.086;2023-04-03T05:44:38;2.45;80.25
68801;SHT31;55784;50.734;7.086;2023-04-03T05:47:03;2.42;80.07
68801;SHT31;55784;50.734;7.086;2023-04-03T05:49:29;2.45;79.94
68801;SHT31;55784;50.734;7.086;2023-04-03T05:51:54;2.51;80.13
68801;SHT31;55784;50.734;7.086;2023-04-03T05:54:28;2.55;80.03
68801;SHT31;55784;50.734;7.086;2023-04-03T05:56:53;2.61;79.87
68801;SHT31;55784;50.734;7.086;2023-04-03T05:59:19;2.78;78.05
68801;SHT31;55784;50.734;7.086;2023-04-03T06:01:45;2.87;77.53
68801;SHT31;55784;50.734;7.086;2023-04-03T06:04:11;2.84;77.76
68801;SHT31;55784;50.734;7.086;2023-04-03T06:09:08;2.89;77.62
68801;SHT31;55784;50.734;7.086;2023-04-03T06:11:34;2.91;77.50
68801;SHT31;55784;50.734;7.086;2023-04-03T06:14:00;2.89;77.69
68801;SHT31;55784;50.734;7.086;2023-04-03T06:16:28;2.96;77.71
68801;SHT31;55784;50.734;7.086;2023-04-03T06:18:54;3.06;76.91
68801;SHT31;55784;50.734;7.086;2023-04-03T06:21:19;3.08;76.91
68801;SHT31;55784;50.734;7.086;2023-04-03T06:23:44;3.12;76.89
68801;SHT31;55784;50.734;7.086;2023-04-03T06:26:10;3.18;76.38
68801;SHT31;55784;50.734;7.086;2023-04-03T06:28:35;3.22;76.39
68801;SHT31;55784;50.734;7.086;2023-04-03T06:31:00;3.25;76.53
68801;SHT31;55784;50.734;7.086;2023-04-03T06:33:26;3.29;76.31
68801;SHT31;55784;50.734;7.086;2023-04-03T06:35:56;3.30;76.43
68801;SHT31;55784;50.734;7.086;2023-04-03T06:38:22;3.40;76.02
68801;SHT31;55784;50.734;7.086;2023-04-03T06:40:47;3.49;74.96
68801;SHT31;55784;50.734;7.086;2023-04-03T06:43:12;3.57;74.84
68801;SHT31;55784;50.734;7.086;2023-04-03T06:45:38;3.67;74.63
68801;SHT31;55784;50.734;7.086;2023-04-03T06:48:03;3.73;73.46
68801;SHT31;55784;50.734;7.086;2023-04-03T06:50:30;3.71;73.31
68801;SHT31;55784;50.734;7.086;2023-04-03T06:52:55;3.84;73.47
68801;SHT31;55784;50.734;7.086;2023-04-03T06:55:20;3.91;72.93
68801;SHT31;55784;50.734;7.086;2023-04-03T06:57:46;3.95;73.06
68801;SHT31;55784;50.734;7.086;2023-04-03T07:00:12;3.95;72.85
68801;SHT31;55784;50.734;7.086;2023-04-03T07:02:38;4.01;72.77
68801;SHT31;55784;50.734;7.086;2023-04-03T07:05:03;4.09;72.31
68801;SHT31;55784;50.734;7.086;2023-04-03T07:07:30;4.21;72.33
68801;SHT31;55784;50.734;7.086;2023-04-03T07:09:59;4.34;72.00
68801;SHT31;55784;50.734;7.086;2023-04-03T07:12:24;4.39;71.91
68801;SHT31;55784;50.734;7.086;2023-04-03T07:14:50;4.41;71.55
68801;SHT31;55784;50.734;7.086;2023-04-03T07:17:15;4.50;71.62
68801;SHT31;55784;50.734;7.086;2023-04-03T07:19:41;4.58;71.27
68801;SHT31;55784;50.734;7.086;2023-04-03T07:22:06;4.69;70.68
68801;SHT31;55784;50.734;7.086;2023-04-03T07:24:31;4.76;70.59
68801;SHT31;55784;50.734;7.086;2023-04-03T07:26:57;4.80;69.35
68801;SHT31;55784;50.734;7.086;2023-04-03T07:29:22;4.94;72.88
68801;SHT31;55784;50.734;7.086;2023-04-03T07:31:48;5.19;72.97
68801;SHT31;55784;50.734;7.086;2023-04-03T07:34:14;5.33;70.32
68801;SHT31;55784;50.734;7.086;2023-04-03T07:36:40;5.55;68.52
68801;SHT31;55784;50.734;7.086;2023-04-03T07:39:06;5.65;68.08
68801;SHT31;55784;50.734;7.086;2023-04-03T07:41:33;5.71;68.17
68801;SHT31;55784;50.734;7.086;2023-04-03T07:43:58;5.79;67.96
68801;SHT31;55784;50.734;7.086;2023-04-03T07:46:24;5.99;67.37
68801;SHT31;55784;50.734;7.086;2023-04-03T07:48:49;6.13;66.75
68801;SHT31;55784;50.734;7.086;2023-04-03T07:51:15;6.20;66.76
68801;SHT31;55784;50.734;7.086;2023-04-03T07:53:41;6.16;66.10
68801;SHT31;55784;50.734;7.086;2023-04-03T07:56:07;5.96;64.61
68801;SHT31;55784;50.734;7.086;2023-04-03T07:58:41;5.84;65.66
68801;SHT31;55784;50.734;7.086;2023-04-03T08:01:06;5.85;65.19
68801;SHT31;55784;50.734;7.086;2023-04-03T08:03:32;5.75;65.41
68801;SHT31;55784;50.734;7.086;2023-04-03T08:06:02;5.81;65.75
68801;SHT31;55784;50.734;7.086;2023-04-03T08:08:28;5.66;65.33
68801;SHT31;55784;50.734;7.086;2023-04-03T08:10:55;5.74;65.31
68801;SHT31;55784;50.734;7.086;2023-04-03T08:13:21;5.59;65.04
68801;SHT31;55784;50.734;7.086;2023-04-03T08:15:47;5.72;65.05
68801;SHT31;55784;50.734;7.086;2023-04-03T08:18:14;5.79;64.43
68801;SHT31;55784;50.734;7.086;2023-04-03T08:23:51;6.10;64.31
68801;SHT31;55784;50.734;7.086;2023-04-03T08:26:19;6.17;63.83
68801;SHT31;55784;50.734;7.086;2023-04-03T08:28:46;6.25;62.87
68801;SHT31;55784;50.734;7.086;2023-04-03T08:31:15;6.30;62.89
68801;SHT31;55784;50.734;7.086;2023-04-03T08:33:42;6.43;62.38
68801;SHT31;55784;50.734;7.086;2023-04-03T08:36:28;6.39;61.63
68801;SHT31;55784;50.734;7.086;2023-04-03T08:38:57;6.57;61.94
68801;SHT31;55784;50.734;7.086;2023-04-03T08:44:14;6.44;61.65
68801;SHT31;55784;50.734;7.086;2023-04-03T08:49:51;6.49;61.74
68801;SHT31;55784;50.734;7.086;2023-04-03T08:52:21;6.67;61.66
68801;SHT31;55784;50.734;7.086;2023-04-03T08:54:51;6.71;60.92
68801;SHT31;55784;50.734;7.086;2023-04-03T08:57:29;6.83;61.64
68801;SHT31;55784;50.734;7.086;2023-04-03T08:59:57;6.85;61.04
68801;SHT31;55784;50.734;7.086;2023-04-03T09:03:00;6.87;60.37
68801;SHT31;55784;50.734;7.086;2023-04-03T09:05:27;6.74;60.43
68801;SHT31;55784;50.734;7.086;2023-04-03T09:07:59;6.90;59.73
68801;SHT31;55784;50.734;7.086;2023-04-03T09:10:30;6.94;60.38
68801;SHT31;55784;50.734;7.086;2023-04-03T09:13:28;7.11;59.30
68801;SHT31;55784;50.734;7.086;2023-04-03T09:15:49;7.18;59.28
68801;SHT31;55784;50.734;7.086;2023-04-03T09:18:16;7.23;58.66
68801;SHT31;55784;50.734;7.086;2023-04-03T09:21:31;7.21;58.52
68801;SHT31;55784;50.734;7.086;2023-04-03T09:23:40;7.35;58.55
68801;SHT31;55784;50.734;7.086;2023-04-03T09:26:11;7.46;58.49
68801;SHT31;55784;50.734;7.086;2023-04-03T09:28:41;7.51;57.75
68801;SHT31;55784;50.734;7.086;2023-04-03T09:33:54;7.52;56.85
68801;SHT31;55784;50.734;7.086;2023-04-03T09:36:47;7.53;57.39
68801;SHT31;55784;50.734;7.086;2023-04-03T09:39:22;7.33;57.03
68801;SHT31;55784;50.734;7.086;2023-04-03T09:41:57;7.41;56.94
68801;SHT31;55784;50.734;7.086;2023-04-03T09:44:25;7.45;57.46
68801;SHT31;55784;50.734;7.086;2023-04-03T09:46:51;7.36;57.15
68801;SHT31;55784;50.734;7.086;2023-04-03T09:49:17;7.29;57.28
68801;SHT31;55784;50.734;7.086;2023-04-03T09:51:42;7.38;57.20
68801;SHT31;55784;50.734;7.086;2023-04-03T09:54:30;7.45;56.65
68801;SHT31;55784;50.734;7.086;2023-04-03T09:57:00;7.31;56.16
68801;SHT31;55784;50.734;7.086;2023-04-03T09:59:26;7.16;57.15
68801;SHT31;55784;50.734;7.086;2023-04-03T10:02:07;7.15;56.61
68801;SHT31;55784;50.734;7.086;2023-04-03T10:04:43;7.07;58.03
68801;SHT31;55784;50.734;7.086;2023-04-03T10:07:35;7.08;57.14
68801;SHT31;55784;50.734;7.086;2023-04-03T10:10:22;7.15;54.88
68801;SHT31;55784;50.734;7.086;2023-04-03T10:13:11;7.55;55.12
68801;SHT31;55784;50.734;7.086;2023-04-03T10:15:44;7.79;54.24
68801;SHT31;55784;50.734;7.086;2023-04-03T10:18:45;7.80;53.19
68801;SHT31;55784;50.734;7.086;2023-04-03T10:21:35;7.89;52.60
68801;SHT31;55784;50.734;7.086;2023-04-03T10:27:06;7.66;51.95
68801;SHT31;55784;50.734;7.086;2023-04-03T10:29:49;7.80;51.80
68801;SHT31;55784;50.734;7.086;2023-04-03T10:32:26;7.84;51.21
68801;SHT31;55784;50.734;7.086;2023-04-03T10:35:13;7.93;51.51
68801;SHT31;55784;50.734;7.086;2023-04-03T10:38:01;8.07;50.72
68801;SHT31;55784;50.734;7.086;2023-04-03T10:40:29;8.00;48.67
68801;SHT31;55784;50.734;7.086;2023-04-03T10:46:00;8.30;47.70
68801;SHT31;55784;50.734;7.086;2023-04-03T10:48:52;8.14;47.26
68801;SHT31;55784;50.734;7.086;2023-04-03T10:51:28;8.24;46.94
68801;SHT31;55784;50.734;7.086;2023-04-03T10:56:52;8.37;48.85
68801;SHT31;55784;50.734;7.086;2023-04-03T11:01:52;8.51;48.32
68801;SHT31;55784;50.734;7.086;2023-04-03T11:04:48;8.24;47.52
68801;SHT31;55784;50.734;7.086;2023-04-03T11:07:25;8.11;46.52
68801;SHT31;55784;50.734;7.086;2023-04-03T11:09:55;8.24;47.83
68801;SHT31;55784;50.734;7.086;2023-04-03T11:12:28;8.62;47.69
68801;SHT31;55784;50.734;7.086;2023-04-03T11:14:56;8.75;45.97
68801;SHT31;55784;50.734;7.086;2023-04-03T11:17:27;8.82;45.20
68801;SHT31;55784;50.734;7.086;2023-04-03T11:22:41;8.61;45.48
68801;SHT31;55784;50.734;7.086;2023-04-03T11:25:17;8.71;46.41
68801;SHT31;55784;50.734;7.086;2023-04-03T11:28:06;8.79;44.44
68801;SHT31;55784;50.734;7.086;2023-04-03T11:33:21;8.98;43.97
68801;SHT31;55784;50.734;7.086;2023-04-03T11:35:54;8.96;43.69
68801;SHT31;55784;50.734;7.086;2023-04-03T11:38:30;8.81;44.06
68801;SHT31;55784;50.734;7.086;2023-04-03T11:41:03;8.96;45.22
68801;SHT31;55784;50.734;7.086;2023-04-03T11:43:31;8.85;44.04
68801;SHT31;55784;50.734;7.086;2023-04-03T11:46:14;9.09;45.23
68801;SHT31;55784;50.734;7.086;2023-04-03T11:48:47;8.83;45.20
68801;SHT31;55784;50.734;7.086;2023-04-03T11:53:41;9.08;44.95
68801;SHT31;55784;50.734;7.086;2023-04-03T12:01:52;9.42;41.51
68801;SHT31;55784;50.734;7.086;2023-04-03T12:04:20;9.22;41.79
68801;SHT31;55784;50.734;7.086;2023-04-03T12:09:33;9.27;44.65
68801;SHT31;55784;50.734;7.086;2023-04-03T12:14:46;9.55;42.88
68801;SHT31;55784;50.734;7.086;2023-04-03T12:17:22;9.70;41.04
68801;SHT31;55784;50.734;7.086;2023-04-03T12:19:48;9.64;41.82
68801;SHT31;55784;50.734;7.086;2023-04-03T12:22:16;9.75;40.81
68801;SHT31;55784;50.734;7.086;2023-04-03T12:24:44;9.60;39.67
68801;SHT31;55784;50.734;7.086;2023-04-03T12:27:28;9.67;44.72
68801;SHT31;55784;50.734;7.086;2023-04-03T12:32:48;9.98;41.48
68801;SHT31;55784;50.734;7.086;2023-04-03T12:35:37;9.99;40.72
68801;SHT31;55784;50.734;7.086;2023-04-03T12:38:44;9.75;39.40
68801;SHT31;55784;50.734;7.086;2023-04-03T12:41:37;9.48;39.44
68801;SHT31;55784;50.734;7.086;2023-04-03T12:46:51;9.91;39.42
68801;SHT31;55784;50.734;7.086;2023-04-03T12:51:47;10.15;40.88
68801;SHT31;55784;50.734;7.086;2023-04-03T12:56:46;10.12;40.57
68801;SHT31;55784;50.734;7.086;2023-04-03T13:01:53;10.12;38.29
68801;SHT31;55784;50.734;7.086;2023-04-03T13:04:18;10.24;40.48
68801;SHT31;55784;50.734;7.086;2023-04-03T13:06:47;10.34;38.91
68801;SHT31;55784;50.734;7.086;2023-04-03T13:11:48;10.36;41.93
68801;SHT31;55784;50.734;7.086;2023-04-03T13:14:20;10.34;39.24
68801;SHT31;55784;50.734;7.086;2023-04-03T13:17:00;10.31;39.52
68801;SHT31;55784;50.734;7.086;2023-04-03T13:19:28;10.46;40.99
68801;SHT31;55784;50.734;7.086;2023-04-03T13:22:01;10.52;40.34
68801;SHT31;55784;50.734;7.086;2023-04-03T13:24:29;10.56;42.86
68801;SHT31;55784;50.734;7.086;2023-04-03T13:26:55;10.69;39.91
68801;SHT31;55784;50.734;7.086;2023-04-03T13:29:27;10.63;39.60
68801;SHT31;55784;50.734;7.086;2023-04-03T13:31:54;10.73;40.35
68801;SHT31;55784;50.734;7.086;2023-04-03T13:34:22;10.65;40.30
68801;SHT31;55784;50.734;7.086;2023-04-03T13:41:46;10.67;39.54
68801;SHT31;55784;50.734;7.086;2023-04-03T13:46:47;10.46;40.53
68801;SHT31;55784;50.734;7.086;2023-04-03T13:49:37;10.52;40.39
68801;SHT31;55784;50.734;7.086;2023-04-03T13:52:26;10.56;40.22
68801;SHT31;55784;50.734;7.086;2023-04-03T13:54:58;10.63;40.50
68801;SHT31;55784;50.734;7.086;2023-04-03T13:57:24;10.59;40.28
68801;SHT31;55784;50.734;7.086;2023-04-03T13:59:50;10.67;40.37
68801;SHT31;55784;50.734;7.086;2023-04-03T14:02:30;10.77;40.40
68801;SHT31;55784;50.734;7.086;2023-04-03T14:04:58;10.52;40.21
68801;SHT31;55784;50.734;7.086;2023-04-03T14:07:27;10.55;40.46
68801;SHT31;55784;50.734;7.086;2023-04-03T14:09:53;10.63;40.49
68801;SHT31;55784;50.734;7.086;2023-04-03T14:12:25;10.49;39.99
68801;SHT31;55784;50.734;7.086;2023-04-03T14:14:52;10.44;40.16
68801;SHT31;55784;50.734;7.086;2023-04-03T14:17:23;10.48;41.07
68801;SHT31;55784;50.734;7.086;2023-04-03T14:19:50;10.56;40.56
68801;SHT31;55784;50.734;7.086;2023-04-03T14:22:28;10.59;40.21
68801;SHT31;55784;50.734;7.086;2023-04-03T14:24:54;10.38;40.72
68801;SHT31;55784;50.734;7.086;2023-04-03T14:27:24;10.45;40.25
68801;SHT31;55784;50.734;7.086;2023-04-03T14:29:51;10.34;39.99
68801;SHT31;55784;50.734;7.086;2023-04-03T14:32:18;10.42;40.84
68801;SHT31;55784;50.734;7.086;2023-04-03T14:34:45;10.48;40.79
68801;SHT31;55784;50.734;7.086;2023-04-03T14:37:13;10.55;39.78
68801;SHT31;55784;50.734;7.086;2023-04-03T14:39:39;10.56;39.24
68801;SHT31;55784;50.734;7.086;2023-04-03T14:42:05;10.50;39.11
68801;SHT31;55784;50.734;7.086;2023-04-03T14:44:30;10.55;39.42
68801;SHT31;55784;50.734;7.086;2023-04-03T14:46:56;10.63;39.79
68801;SHT31;55784;50.734;7.086;2023-04-03T14:49:26;10.75;39.77
68801;SHT31;55784;50.734;7.086;2023-04-03T14:51:53;10.77;39.84
68801;SHT31;55784;50.734;7.086;2023-04-03T14:54:20;10.89;40.10
68801;SHT31;55784;50.734;7.086;2023-04-03T14:56:51;10.92;40.24
68801;SHT31;55784;50.734;7.086;2023-04-03T14:59:16;10.90;40.28
68801;SHT31;55784;50.734;7.086;2023-04-03T15:01:42;10.92;39.78
68801;SHT31;55784;50.734;7.086;2023-04-03T15:04:16;10.93;40.03
68801;SHT31;55784;50.734;7.086;2023-04-03T15:06:41;10.95;40.56
68801;SHT31;55784;50.734;7.086;2023-04-03T15:09:22;10.96;39.87
68801;SHT31;55784;50.734;7.086;2023-04-03T15:11:50;10.80;39.12
68801;SHT31;55784;50.734;7.086;2023-04-03T15:14:16;10.59;39.82
68801;SHT31;55784;50.734;7.086;2023-04-03T15:16:42;10.56;40.79
68801;SHT31;55784;50.734;7.086;2023-04-03T15:19:08;10.69;40.55
68801;SHT31;55784;50.734;7.086;2023-04-03T15:21:33;10.59;40.16
68801;SHT31;55784;50.734;7.086;2023-04-03T15:23:58;10.53;40.26
68801;SHT31;55784;50.734;7.086;2023-04-03T15:26:24;10.57;40.73
68801;SHT31;55784;50.734;7.086;2023-04-03T15:28:50;10.56;40.21
68801;SHT31;55784;50.734;7.086;2023-04-03T15:31:15;10.63;40.79
68801;SHT31;55784;50.734;7.086;2023-04-03T15:33:41;10.48;41.19
68801;SHT31;55784;50.734;7.086;2023-04-03T15:36:07;10.52;41.64
68801;SHT31;55784;50.734;7.086;2023-04-03T15:38:32;10.63;42.27
68801;SHT31;55784;50.734;7.086;2023-04-03T15:40:58;10.72;41.17
68801;SHT31;55784;50.734;7.086;2023-04-03T15:43:23;10.66;39.61
68801;SHT31;55784;50.734;7.086;2023-04-03T15:45:49;10.60;40.78
68801;SHT31;55784;50.734;7.086;2023-04-03T15:48:18;10.56;40.93
68801;SHT31;55784;50.734;7.086;2023-04-03T15:50:44;10.62;41.74
68801;SHT31;55784;50.734;7.086;2023-04-03T15:53:09;10.67;41.40
68801;SHT31;55784;50.734;7.086;2023-04-03T15:55:37;10.57;40.74
68801;SHT31;55784;50.734;7.086;2023-04-03T15:58:03;10.59;41.10
68801;SHT31;55784;50.734;7.086;2023-04-03T16:00:29;10.55;40.94
68801;SHT31;55784;50.734;7.086;2023-04-03T16:02:59;10.52;40.71
68801;SHT31;55784;50.734;7.086;2023-04-03T16:05:26;10.52;41.15
68801;SHT31;55784;50.734;7.086;2023-04-03T16:07:52;10.48;40.40
68801;SHT31;55784;50.734;7.086;2023-04-03T16:10:17;10.46;40.88
68801;SHT31;55784;50.734;7.086;2023-04-03T16:12:43;10.38;40.92
68801;SHT31;55784;50.734;7.086;2023-04-03T16:15:09;10.45;41.54
68801;SHT31;55784;50.734;7.086;2023-04-03T16:17:36;10.45;41.07
68801;SHT31;55784;50.734;7.086;2023-04-03T16:20:03;10.38;40.94
68801;SHT31;55784;50.734;7.086;2023-04-03T16:22:29;10.31;40.98
68801;SHT31;55784;50.734;7.086;2023-04-03T16:24:55;10.32;41.75
68801;SHT31;55784;50.734;7.086;2023-04-03T16:27:21;10.22;41.67
68801;SHT31;55784;50.734;7.086;2023-04-03T16:29:46;10.28;41.77
68801;SHT31;55784;50.734;7.086;2023-04-03T16:32:12;10.09;40.58
68801;SHT31;55784;50.734;7.086;2023-04-03T16:34:38;10.18;42.43
68801;SHT31;55784;50.734;7.086;2023-04-03T16:37:10;10.15;41.60
68801;SHT31;55784;50.734;7.086;2023-04-03T16:39:37;10.02;41.14
68801;SHT31;55784;50.734;7.086;2023-04-03T16:42:03;10.05;41.72
68801;SHT31;55784;50.734;7.086;2023-04-03T16:44:28;10.06;42.30
68801;SHT31;55784;50.734;7.086;2023-04-03T16:46:53;10.08;41.48
68801;SHT31;55784;50.734;7.086;2023-04-03T16:49:22;10.04;41.62
68801;SHT31;55784;50.734;7.086;2023-04-03T17:11:33;9.50;42.88
68801;SHT31;55784;50.734;7.086;2023-04-03T17:17:24;9.33;43.53
68801;SHT31;55784;50.734;7.086;2023-04-03T17:22:38;9.30;43.10
68801;SHT31;55784;50.734;7.086;2023-04-03T17:25:42;9.24;42.84
68801;SHT31;55784;50.734;7.086;2023-04-03T17:28:16;9.13;42.99
68801;SHT31;55784;50.734;7.086;2023-04-03T17:30:53;9.02;43.15